Time;durP1;ratioP1;P1;durP2;ratioP2;P2;SDS_P1;SDS_P2;PMS_P1;PMS_P2;Temp;Humidity;BMP_temperature;BMP_pressure;BME280_temperature;BME280_humidity;BME280_pressure;Samples;Min_cycle;Max_cycle;Signal;HPM_P1;HPM_P2
2023/10/03 00:04:49;;;;;;;9.20;6.40;;;;;;;;;;10385393;28;20219;-86
2023/10/03 00:09:50;;;;;;;10.20;6.10;;;;;;;;;;10406526;28;20234;-86
2023/10/03 00:14:51;;;;;;;9.02;6.18;;;;;;;;;;10385165;28;20218;-87
2023/10/03 00:19:52;;;;;;;13.73;7.07;;;;;;;;;;10391428;28;20218;-87
2023/10/03 00:24:53;;;;;;;11.32;6.95;;;;;;;;;;10407041;28;20717;-85
2023/10/03 00:29:55;;;;;;;10.02;6.15;;;;;;;;;;10411084;28;20218;-85
2023/10/03 00:34:56;;;;;;;12.45;6.65;;;;;;;;;;10405843;28;20250;-86
2023/10/03 00:39:59;;;;;;;7.95;5.43;;;;;;;;;;10398525;28;20202;-85
2023/10/03 00:45:00;;;;;;;6.43;5.82;;;;;;;;;;10410247;28;20220;-85
2023/10/03 00:50:03;;;;;;;10.93;5.28;;;;;;;;;;10398436;28;20216;-86
2023/10/03 00:55:05;;;;;;;8.57;6.10;;;;;;;;;;10416322;28;20864;-85
2023/10/03 01:00:16;;;;;;;5.90;5.25;;;;;;;;;;10393373;28;20238;-84
2023/10/03 01:05:17;;;;;;;9.82;5.88;;;;;;;;;;10415117;28;20235;-86
2023/10/03 01:10:19;;;;;;;7.70;5.20;;;;;;;;;;10400277;28;20240;-84
2023/10/03 01:15:20;;;;;;;9.02;5.03;;;;;;;;;;10407975;28;20299;-86
2023/10/03 01:20:28;;;;;;;5.30;4.05;;;;;;;;;;10398928;28;20738;-86
2023/10/03 01:25:34;;;;;;;8.35;5.07;;;;;;;;;;10420943;28;21279;-85
2023/10/03 01:30:36;;;;;;;5.28;4.10;;;;;;;;;;10400882;28;20256;-86
2023/10/03 01:35:38;;;;;;;8.45;4.45;;;;;;;;;;10409336;28;20233;-86
2023/10/03 01:40:40;;;;;;;5.50;4.43;;;;;;;;;;10413165;28;20325;-86
2023/10/03 01:45:41;;;;;;;6.03;4.18;;;;;;;;;;10390975;28;20231;-85
2023/10/03 01:50:42;;;;;;;5.30;4.55;;;;;;;;;;10419083;28;20242;-86
2023/10/03 01:55:45;;;;;;;3.85;3.50;;;;;;;;;;10400033;28;20237;-87
2023/10/03 02:00:48;;;;;;;7.07;4.53;;;;;;;;;;10398783;28;20204;-86
2023/10/03 02:05:49;;;;;;;7.03;4.65;;;;;;;;;;10416285;28;20272;-84
2023/10/03 02:10:52;;;;;;;6.05;4.32;;;;;;;;;;10361527;28;20214;-88
2023/10/03 02:15:54;;;;;;;8.32;4.53;;;;;;;;;;9932973;28;20317;-87
2023/10/03 02:21:03;;;;;;;5.47;4.30;;;;;;;;;;9888163;28;20309;-87
2023/10/03 02:26:11;;;;;;;6.47;4.40;;;;;;;;;;9938289;28;20239;-87
2023/10/03 02:31:15;;;;;;;6.40;3.72;;;;;;;;;;9893518;28;20223;-87
2023/10/03 02:36:16;;;;;;;4.55;3.55;;;;;;;;;;9943614;28;20223;-86
2023/10/03 02:41:17;;;;;;;9.20;3.45;;;;;;;;;;9896156;28;21273;-87
2023/10/03 02:46:19;;;;;;;7.40;3.55;;;;;;;;;;9968342;28;20222;-86
2023/10/03 02:51:24;;;;;;;5.82;3.08;;;;;;;;;;9994220;28;20215;-87
2023/10/03 02:56:25;;;;;;;7.80;3.17;;;;;;;;;;9932655;28;20227;-87
2023/10/03 03:01:26;;;;;;;5.32;3.08;;;;;;;;;;9956199;28;20345;-87
2023/10/03 03:06:31;;;;;;;3.63;3.15;;;;;;;;;;9927227;28;20330;-87
2023/10/03 03:11:32;;;;;;;4.05;3.53;;;;;;;;;;9976274;28;20251;-88
2023/10/03 03:16:34;;;;;;;3.53;3.30;;;;;;;;;;10046727;28;20228;-87
2023/10/03 03:21:38;;;;;;;7.40;3.70;;;;;;;;;;10078270;28;21936;-86
2023/10/03 03:26:39;;;;;;;6.05;3.35;;;;;;;;;;10132517;28;20358;-88
2023/10/03 03:31:42;;;;;;;4.35;3.10;;;;;;;;;;9997240;28;21232;-87
2023/10/03 03:36:46;;;;;;;6.90;3.75;;;;;;;;;;9987710;28;20227;-88
2023/10/03 03:41:48;;;;;;;5.90;3.60;;;;;;;;;;9923931;28;20207;-87
2023/10/03 03:46:50;;;;;;;5.47;3.40;;;;;;;;;;9961844;28;20824;-87
2023/10/03 03:51:51;;;;;;;3.70;2.80;;;;;;;;;;9912865;28;22154;-87
2023/10/03 03:56:52;;;;;;;9.30;3.88;;;;;;;;;;10171663;28;20223;-85
2023/10/03 04:01:55;;;;;;;11.18;3.80;;;;;;;;;;10426830;28;20208;-84
2023/10/03 04:06:56;;;;;;;6.93;3.35;;;;;;;;;;10383286;28;20302;-85
2023/10/03 04:11:59;;;;;;;7.57;3.92;;;;;;;;;;10390476;28;20215;-83
2023/10/03 04:17:00;;;;;;;11.23;4.22;;;;;;;;;;10380799;28;20218;-86
2023/10/03 04:22:01;;;;;;;8.90;3.47;;;;;;;;;;10382046;28;20210;-88
2023/10/03 04:27:02;;;;;;;9.82;4.82;;;;;;;;;;10405910;28;20666;-85
2023/10/03 04:32:03;;;;;;;9.45;4.57;;;;;;;;;;10407969;28;20305;-85
2023/10/03 04:37:04;;;;;;;8.05;3.85;;;;;;;;;;10405765;28;20640;-84
2023/10/03 04:42:06;;;;;;;11.70;5.40;;;;;;;;;;10390353;28;20215;-86
2023/10/03 04:47:11;;;;;;;8.45;4.63;;;;;;;;;;10396177;28;20277;-85
2023/10/03 04:52:12;;;;;;;11.98;5.22;;;;;;;;;;10402880;28;20873;-86
2023/10/03 04:57:13;;;;;;;9.05;4.40;;;;;;;;;;10393742;28;20277;-85
2023/10/03 05:02:15;;;;;;;14.43;5.53;;;;;;;;;;10403729;28;20280;-84
2023/10/03 05:07:16;;;;;;;13.30;5.90;;;;;;;;;;10401846;28;20215;-86
2023/10/03 05:12:17;;;;;;;10.20;4.93;;;;;;;;;;10423956;28;21199;-86
2023/10/03 05:17:18;;;;;;;9.85;5.32;;;;;;;;;;10433973;28;20230;-87
2023/10/03 05:22:20;;;;;;;11.95;4.97;;;;;;;;;;10379702;28;20893;-86
2023/10/03 05:27:21;;;;;;;12.73;5.57;;;;;;;;;;10394235;28;20231;-85
2023/10/03 05:32:24;;;;;;;11.23;5.13;;;;;;;;;;10398271;28;20191;-86
2023/10/03 05:37:25;;;;;;;16.20;5.32;;;;;;;;;;10398478;28;20211;-85
2023/10/03 05:42:26;;;;;;;11.63;5.53;;;;;;;;;;10377800;28;20225;-82
2023/10/03 05:47:28;;;;;;;13.10;5.30;;;;;;;;;;10391792;28;20368;-84
2023/10/03 05:52:29;;;;;;;14.43;6.05;;;;;;;;;;10369102;28;20215;-84
2023/10/03 05:57:30;;;;;;;16.98;5.82;;;;;;;;;;10381630;28;20649;-84
2023/10/03 06:02:32;;;;;;;16.50;5.60;;;;;;;;;;10165267;28;20309;-85
2023/10/03 06:07:41;;;;;;;15.75;5.97;;;;;;;;;;10006972;28;20239;-85
2023/10/03 06:12:42;;;;;;;17.65;6.90;;;;;;;;;;10001731;28;20222;-85
2023/10/03 06:17:43;;;;;;;13.63;5.85;;;;;;;;;;10001849;28;20218;-85
2023/10/03 06:22:44;;;;;;;17.80;5.93;;;;;;;;;;10003934;28;20217;-82
2023/10/03 06:27:45;;;;;;;14.35;6.18;;;;;;;;;;10010789;28;20235;-82
2023/10/03 06:32:46;;;;;;;20.13;7.18;;;;;;;;;;10007253;28;20326;-82
2023/10/03 06:37:48;;;;;;;17.27;6.05;;;;;;;;;;10015060;28;21280;-82
2023/10/03 06:42:49;;;;;;;15.88;5.93;;;;;;;;;;10000587;28;20257;-82
2023/10/03 06:47:50;;;;;;;19.77;7.43;;;;;;;;;;9976705;28;21974;-82
2023/10/03 06:52:53;;;;;;;14.98;6.28;;;;;;;;;;10016732;28;22286;-83
2023/10/03 06:57:54;;;;;;;13.63;6.10;;;;;;;;;;10018395;28;20334;-82
2023/10/03 07:02:56;;;;;;;15.85;6.30;;;;;;;;;;9882149;28;20226;-82
2023/10/03 07:07:59;;;;;;;15.07;6.45;;;;;;;;;;9895493;28;20426;-82
2023/10/03 07:13:01;;;;;;;16.02;6.10;;;;;;;;;;9828449;28;20227;-80
2023/10/03 07:18:05;;;;;;;16.20;6.35;;;;;;;;;;9813924;28;20220;-80
2023/10/03 07:23:06;;;;;;;12.27;5.82;;;;;;;;;;9799986;28;20226;-81
2023/10/03 07:28:08;;;;;;;14.00;5.50;;;;;;;;;;9791624;28;20369;-80
2023/10/03 07:33:09;;;;;;;10.48;5.22;;;;;;;;;;9801380;28;22293;-80
2023/10/03 07:38:12;;;;;;;15.57;5.72;;;;;;;;;;9813651;28;21469;-82
2023/10/03 07:43:13;;;;;;;14.23;5.35;;;;;;;;;;9808387;28;21980;-81
2023/10/03 07:48:14;;;;;;;13.68;5.65;;;;;;;;;;9821178;28;20227;-82
2023/10/03 07:53:16;;;;;;;13.63;5.68;;;;;;;;;;10086178;28;20309;-78
2023/10/03 07:58:20;;;;;;;8.80;4.38;;;;;;;;;;10359941;28;20242;-79
2023/10/03 08:03:21;;;;;;;13.30;5.00;;;;;;;;;;10399756;28;20230;-78
2023/10/03 08:08:22;;;;;;;8.35;4.93;;;;;;;;;;10378527;28;20219;-78
2023/10/03 08:13:23;;;;;;;12.38;5.43;;;;;;;;;;10374920;28;20229;-78
2023/10/03 08:18:24;;;;;;;14.95;5.72;;;;;;;;;;10385929;28;20259;-82
2023/10/03 08:23:25;;;;;;;12.18;5.20;;;;;;;;;;10388140;28;20861;-81
2023/10/03 08:28:28;;;;;;;6.95;4.03;;;;;;;;;;10409348;28;20284;-78
2023/10/03 08:33:36;;;;;;;9.52;4.60;;;;;;;;;;10409405;28;20226;-81
2023/10/03 08:38:43;;;;;;;8.00;4.72;;;;;;;;;;10384960;28;20216;-80
2023/10/03 08:43:51;;;;;;;9.20;4.45;;;;;;;;;;10362679;28;20250;-79
2023/10/03 08:48:53;;;;;;;8.55;4.15;;;;;;;;;;10379568;28;20229;-81
2023/10/03 08:54:08;;;;;;;8.90;3.65;;;;;;;;;;10413252;28;20215;-81
2023/10/03 08:59:10;;;;;;;7.95;4.00;;;;;;;;;;10405693;28;20309;-80
2023/10/03 09:04:15;;;;;;;8.80;3.75;;;;;;;;;;10378398;28;20220;-80
2023/10/03 09:09:16;;;;;;;5.22;3.70;;;;;;;;;;10421334;28;20199;-80
2023/10/03 09:14:20;;;;;;;11.05;4.43;;;;;;;;;;10386287;28;20255;-80
2023/10/03 09:19:41;;;;;;;7.75;3.88;;;;;;;;;;10419527;28;20199;-80
2023/10/03 09:24:46;;;;;;;6.70;3.70;;;;;;;;;;10421436;28;20343;-79
2023/10/03 09:29:49;;;;;;;4.88;3.80;;;;;;;;;;10393933;28;20313;-79
2023/10/03 09:34:56;;;;;;;7.65;3.65;;;;;;;;;;10381010;28;20583;-78
2023/10/03 09:39:59;;;;;;;8.43;3.63;;;;;;;;;;10399132;28;20747;-79
2023/10/03 09:45:00;;;;;;;6.93;4.05;;;;;;;;;;10396020;28;20254;-79
2023/10/03 09:50:08;;;;;;;4.60;3.67;;;;;;;;;;10319833;28;20222;-81
2023/10/03 09:55:21;;;;;;;8.30;4.00;;;;;;;;;;9831272;28;21554;-80
2023/10/03 10:05:49;;;;;;;9.93;3.88;;;;;;;;;;9796649;28;21728;-78
2023/10/03 10:11:11;;;;;;;5.85;3.90;;;;;;;;;;9834411;28;21980;-79
2023/10/03 10:16:20;;;;;;;7.10;3.47;;;;;;;;;;9852291;28;20956;-78
2023/10/03 10:21:31;;;;;;;5.85;3.60;;;;;;;;;;9819769;28;20417;-79
2023/10/03 10:26:35;;;;;;;5.20;3.90;;;;;;;;;;9846724;28;20231;-79
2023/10/03 10:31:38;;;;;;;6.05;3.75;;;;;;;;;;9824197;28;20215;-80
2023/10/03 10:37:01;;;;;;;5.25;4.05;;;;;;;;;;9830146;28;20407;-77
2023/10/03 10:42:14;;;;;;;8.85;4.00;;;;;;;;;;9786182;28;21583;-79
2023/10/03 10:47:15;;;;;;;3.33;3.00;;;;;;;;;;9762865;28;20893;-79
2023/10/03 10:52:17;;;;;;;4.25;3.30;;;;;;;;;;9796423;28;20872;-78
2023/10/03 10:57:19;;;;;;;7.28;4.18;;;;;;;;;;9754760;28;20988;-78
2023/10/03 11:02:22;;;;;;;3.38;3.15;;;;;;;;;;9794015;28;21323;-77
2023/10/03 11:07:23;;;;;;;6.93;3.22;;;;;;;;;;9755461;28;21144;-79
2023/10/03 11:12:28;;;;;;;4.88;3.38;;;;;;;;;;9794113;28;21429;-78
2023/10/03 11:17:29;;;;;;;6.47;3.65;;;;;;;;;;9754503;28;20793;-78
2023/10/03 11:22:31;;;;;;;5.40;3.30;;;;;;;;;;9755886;28;21054;-76
2023/10/03 11:27:32;;;;;;;5.45;3.05;;;;;;;;;;9774995;28;21036;-78
2023/10/03 11:32:33;;;;;;;4.82;3.33;;;;;;;;;;9759945;28;20227;-79
2023/10/03 11:37:41;;;;;;;7.50;3.63;;;;;;;;;;9760819;28;21671;-78
2023/10/03 11:42:46;;;;;;;4.70;3.08;;;;;;;;;;9769421;28;20865;-80
2023/10/03 11:48:10;;;;;;;8.90;3.33;;;;;;;;;;9873492;28;20333;-79
2023/10/03 11:53:12;;;;;;;4.13;2.83;;;;;;;;;;10383134;28;20272;-79
2023/10/03 11:58:13;;;;;;;6.13;2.83;;;;;;;;;;10396212;28;21101;-79
2023/10/03 12:03:15;;;;;;;2.53;2.33;;;;;;;;;;10383890;28;20637;-79
2023/10/03 12:08:16;;;;;;;2.97;2.78;;;;;;;;;;10379942;28;20238;-78
2023/10/03 12:13:18;;;;;;;3.42;2.97;;;;;;;;;;10365190;28;20295;-79
2023/10/03 12:18:19;;;;;;;3.58;2.70;;;;;;;;;;10398364;28;20207;-79
2023/10/03 12:23:20;;;;;;;5.68;2.58;;;;;;;;;;10437409;28;20239;-83
2023/10/03 12:28:21;;;;;;;4.53;2.42;;;;;;;;;;10414607;28;20223;-78
2023/10/03 12:33:22;;;;;;;2.45;2.25;;;;;;;;;;10410413;28;20222;-79
2023/10/03 12:38:23;;;;;;;2.28;2.15;;;;;;;;;;10391413;28;20305;-79
2023/10/03 12:43:25;;;;;;;1.92;1.80;;;;;;;;;;10428875;28;20305;-81
2023/10/03 12:48:26;;;;;;;5.57;2.08;;;;;;;;;;10410568;28;20210;-80
2023/10/03 12:53:35;;;;;;;4.63;1.90;;;;;;;;;;10411064;28;20218;-82
2023/10/03 12:58:37;;;;;;;1.83;1.73;;;;;;;;;;10427826;28;20212;-79
2023/10/03 13:03:39;;;;;;;3.08;2.33;;;;;;;;;;10394704;28;20211;-77
2023/10/03 13:08:42;;;;;;;4.32;1.90;;;;;;;;;;10402994;28;20227;-83
2023/10/03 13:13:45;;;;;;;1.95;1.73;;;;;;;;;;10403768;28;20230;-82
2023/10/03 13:18:47;;;;;;;2.85;2.22;;;;;;;;;;10421827;28;20215;-80
2023/10/03 13:23:48;;;;;;;2.38;1.83;;;;;;;;;;10398058;28;20212;-80
2023/10/03 13:28:49;;;;;;;1.90;1.80;;;;;;;;;;10433246;28;20811;-80
2023/10/03 13:33:50;;;;;;;4.90;2.45;;;;;;;;;;10413375;28;20234;-80
2023/10/03 13:38:51;;;;;;;2.35;2.00;;;;;;;;;;10430286;28;20697;-79
2023/10/03 13:43:52;;;;;;;2.65;1.75;;;;;;;;;;10421921;28;20604;-80
2023/10/03 13:48:57;;;;;;;4.85;2.25;;;;;;;;;;10184766;28;20228;-79
2023/10/03 13:53:59;;;;;;;2.03;1.88;;;;;;;;;;9788099;28;20927;-80
2023/10/03 13:59:00;;;;;;;2.22;1.63;;;;;;;;;;9798728;28;21777;-80
2023/10/03 14:04:03;;;;;;;4.07;1.70;;;;;;;;;;9774276;28;20744;-80
2023/10/03 14:09:05;;;;;;;4.15;1.88;;;;;;;;;;9766255;28;20843;-79
2023/10/03 14:14:08;;;;;;;1.58;1.27;;;;;;;;;;9770408;28;21517;-81
2023/10/03 14:19:10;;;;;;;2.75;1.60;;;;;;;;;;9776499;28;20639;-79
2023/10/03 14:24:11;;;;;;;1.30;1.23;;;;;;;;;;9814049;28;20348;-80
2023/10/03 14:29:12;;;;;;;1.20;1.10;;;;;;;;;;9769815;28;20693;-79
2023/10/03 14:34:14;;;;;;;1.00;1.00;;;;;;;;;;9761080;28;21082;-82
2023/10/03 14:39:24;;;;;;;6.95;1.98;;;;;;;;;;9768513;28;21538;-80
2023/10/03 14:44:25;;;;;;;1.50;1.50;;;;;;;;;;9782160;28;20366;-77
2023/10/03 14:49:29;;;;;;;4.47;1.83;;;;;;;;;;9773790;28;20653;-78
2023/10/03 14:54:32;;;;;;;2.40;2.00;;;;;;;;;;9751782;28;20388;-75
2023/10/03 14:59:33;;;;;;;2.45;1.80;;;;;;;;;;9786397;28;21352;-77
2023/10/03 15:04:35;;;;;;;1.70;1.35;;;;;;;;;;9760456;28;20631;-76
2023/10/03 15:09:39;;;;;;;0.70;0.70;;;;;;;;;;9767357;28;20223;-75
2023/10/03 15:14:40;;;;;;;0.73;0.68;;;;;;;;;;9763265;28;21225;-78
2023/10/03 15:19:42;;;;;;;0.40;0.40;;;;;;;;;;9761537;28;21200;-75
2023/10/03 15:24:43;;;;;;;0.35;0.35;;;;;;;;;;9766209;28;21271;-75
2023/10/03 15:29:44;;;;;;;1.55;0.45;;;;;;;;;;9760436;28;20219;-74
2023/10/03 15:34:45;;;;;;;0.85;0.63;;;;;;;;;;9746540;28;20349;-76
2023/10/03 15:39:47;;;;;;;0.85;0.82;;;;;;;;;;9768133;28;20349;-75
2023/10/03 15:44:49;;;;;;;0.85;0.85;;;;;;;;;;10020770;28;20219;-77
2023/10/03 15:49:50;;;;;;;1.25;0.60;;;;;;;;;;10370997;28;20298;-79
2023/10/03 15:54:53;;;;;;;1.75;0.63;;;;;;;;;;10392284;28;20646;-79
2023/10/03 15:59:54;;;;;;;0.60;0.60;;;;;;;;;;10390794;28;20207;-80
2023/10/03 16:04:56;;;;;;;0.75;0.40;;;;;;;;;;10388324;28;20724;-78
2023/10/03 16:10:04;;;;;;;1.33;0.35;;;;;;;;;;10389785;28;20215;-80
2023/10/03 16:15:05;;;;;;;0.35;0.35;;;;;;;;;;10398725;28;20222;-76
2023/10/03 16:20:06;;;;;;;0.75;0.50;;;;;;;;;;10386950;28;20215;-77
2023/10/03 16:25:08;;;;;;;0.55;0.50;;;;;;;;;;10383500;28;20223;-78
2023/10/03 16:30:09;;;;;;;0.57;0.50;;;;;;;;;;10336918;28;20260;-79
2023/10/03 16:35:14;;;;;;;1.20;0.50;;;;;;;;;;10379266;28;20685;-78
2023/10/03 16:40:17;;;;;;;2.40;0.30;;;;;;;;;;10396794;28;20864;-77
2023/10/03 16:45:18;;;;;;;1.38;0.30;;;;;;;;;;10397850;28;20273;-80
2023/10/03 16:50:19;;;;;;;0.30;0.22;;;;;;;;;;10377332;28;20184;-76
2023/10/03 16:55:20;;;;;;;0.30;0.30;;;;;;;;;;10407728;28;20289;-75
2023/10/03 17:00:22;;;;;;;0.22;0.20;;;;;;;;;;10397116;28;21545;-75
2023/10/03 17:05:24;;;;;;;0.10;0.10;;;;;;;;;;10384113;28;20237;-74
2023/10/03 17:10:25;;;;;;;2.65;0.20;;;;;;;;;;10384753;28;20313;-75
2023/10/03 17:15:26;;;;;;;0.10;0.10;;;;;;;;;;10384019;28;20642;-75
2023/10/03 17:20:31;;;;;;;1.80;0.20;;;;;;;;;;10387107;28;20721;-74
2023/10/03 17:25:32;;;;;;;0.30;0.20;;;;;;;;;;10403551;28;20689;-75
2023/10/03 17:30:33;;;;;;;0.20;0.20;;;;;;;;;;10388476;28;20215;-75
2023/10/03 17:35:34;;;;;;;0.52;0.13;;;;;;;;;;10363040;28;20281;-74
2023/10/03 17:40:35;;;;;;;2.25;0.10;;;;;;;;;;10390941;28;20219;-78
2023/10/03 17:45:40;;;;;;;0.32;0.30;;;;;;;;;;10047439;28;20684;-76
2023/10/03 17:50:47;;;;;;;0.90;0.20;;;;;;;;;;9759746;28;21355;-75
2023/10/03 17:55:48;;;;;;;1.02;0.38;;;;;;;;;;9776071;28;21381;-75
2023/10/03 18:00:49;;;;;;;0.22;0.13;;;;;;;;;;9732474;28;21336;-76
2023/10/03 18:05:51;;;;;;;2.65;0.43;;;;;;;;;;9772613;28;21371;-76
2023/10/03 18:10:52;;;;;;;1.20;0.30;;;;;;;;;;9735334;28;21342;-77
2023/10/03 18:15:54;;;;;;;0.30;0.30;;;;;;;;;;9761463;28;20778;-76
2023/10/03 18:20:55;;;;;;;0.68;0.47;;;;;;;;;;9757638;28;21430;-74
2023/10/03 18:25:58;;;;;;;0.65;0.50;;;;;;;;;;9738771;28;21846;-76
2023/10/03 18:30:59;;;;;;;1.75;0.40;;;;;;;;;;9757678;28;20969;-76
2023/10/03 18:36:00;;;;;;;1.65;0.30;;;;;;;;;;9750466;28;20767;-77
2023/10/03 18:41:01;;;;;;;1.95;0.60;;;;;;;;;;9754313;28;21449;-76
2023/10/03 18:46:07;;;;;;;1.85;0.45;;;;;;;;;;9732867;28;20305;-77
2023/10/03 18:51:08;;;;;;;1.17;0.47;;;;;;;;;;9726007;28;20865;-75
2023/10/03 18:56:13;;;;;;;0.30;0.30;;;;;;;;;;9771887;28;20231;-79
2023/10/03 19:01:18;;;;;;;1.52;0.40;;;;;;;;;;9742649;28;20801;-78
2023/10/03 19:06:19;;;;;;;1.13;0.40;;;;;;;;;;9752162;28;21602;-76
2023/10/03 19:11:20;;;;;;;4.15;0.60;;;;;;;;;;9748868;28;20225;-77
2023/10/03 19:16:21;;;;;;;2.75;0.75;;;;;;;;;;9746207;28;21127;-78
2023/10/03 19:21:22;;;;;;;1.48;0.90;;;;;;;;;;9776285;28;20250;-78
2023/10/03 19:26:24;;;;;;;2.25;1.02;;;;;;;;;;9753677;28;20465;-77
2023/10/03 19:31:25;;;;;;;1.95;1.00;;;;;;;;;;9767015;28;20254;-78
2023/10/03 19:36:26;;;;;;;4.10;1.20;;;;;;;;;;9734680;28;21061;-76
2023/10/03 19:41:27;;;;;;;6.90;0.93;;;;;;;;;;10093895;28;20207;-79
2023/10/03 19:46:28;;;;;;;2.22;0.90;;;;;;;;;;10389895;28;20249;-78
2023/10/03 19:51:32;;;;;;;1.67;0.88;;;;;;;;;;10393079;28;20215;-78
2023/10/03 19:56:35;;;;;;;3.03;0.75;;;;;;;;;;10376246;28;20249;-77
2023/10/03 20:01:37;;;;;;;2.25;0.70;;;;;;;;;;10366830;28;21001;-76
2023/10/03 20:06:38;;;;;;;1.70;0.80;;;;;;;;;;10394448;28;20848;-75
2023/10/03 20:11:39;;;;;;;2.28;1.20;;;;;;;;;;10368419;28;20206;-80
2023/10/03 20:16:41;;;;;;;1.17;0.70;;;;;;;;;;10357896;28;20222;-77
2023/10/03 20:21:42;;;;;;;3.00;0.85;;;;;;;;;;10381359;28;20284;-77
2023/10/03 20:26:43;;;;;;;3.13;0.93;;;;;;;;;;10399300;28;20219;-78
2023/10/03 20:31:44;;;;;;;1.40;0.55;;;;;;;;;;10384286;28;20214;-79
2023/10/03 20:36:47;;;;;;;1.23;0.65;;;;;;;;;;10375046;28;20730;-79
2023/10/03 20:41:48;;;;;;;1.58;0.73;;;;;;;;;;10381658;28;20214;-79
2023/10/03 20:46:49;;;;;;;0.60;0.60;;;;;;;;;;10373229;28;20241;-80
2023/10/03 20:51:51;;;;;;;0.95;0.93;;;;;;;;;;10375237;28;20730;-79
2023/10/03 20:56:52;;;;;;;3.70;0.90;;;;;;;;;;10386612;28;20220;-79
2023/10/03 21:01:54;;;;;;;1.45;0.77;;;;;;;;;;10387003;28;20231;-76
2023/10/03 21:06:55;;;;;;;1.00;0.90;;;;;;;;;;10385443;28;20290;-78
2023/10/03 21:12:00;;;;;;;1.17;0.65;;;;;;;;;;10388486;28;20214;-79
2023/10/03 21:17:02;;;;;;;4.05;0.57;;;;;;;;;;10411695;28;20269;-79
2023/10/03 21:22:05;;;;;;;2.85;0.57;;;;;;;;;;10379236;28;20297;-78
2023/10/03 21:27:06;;;;;;;0.85;0.60;;;;;;;;;;10394228;28;20937;-78
2023/10/03 21:32:08;;;;;;;0.75;0.75;;;;;;;;;;10413002;28;20310;-78
2023/10/03 21:37:09;;;;;;;1.27;0.55;;;;;;;;;;10379461;28;20227;-78
2023/10/03 21:42:10;;;;;;;1.83;0.60;;;;;;;;;;10376561;28;20223;-79
2023/10/03 21:47:11;;;;;;;3.25;0.73;;;;;;;;;;10266515;28;20835;-77
2023/10/03 21:52:12;;;;;;;0.60;0.55;;;;;;;;;;9804474;28;22452;-76
2023/10/03 21:57:16;;;;;;;3.33;0.65;;;;;;;;;;9786655;28;20312;-75
2023/10/03 22:02:18;;;;;;;2.17;0.50;;;;;;;;;;9774425;28;20360;-78
2023/10/03 22:07:19;;;;;;;0.60;0.60;;;;;;;;;;9813764;28;20246;-76
2023/10/03 22:12:20;;;;;;;1.58;0.50;;;;;;;;;;9792100;28;21642;-78
2023/10/03 22:17:22;;;;;;;1.88;0.50;;;;;;;;;;9779085;28;20321;-76
2023/10/03 22:22:24;;;;;;;0.60;0.60;;;;;;;;;;9790608;28;22279;-76
2023/10/03 22:27:25;;;;;;;2.72;0.50;;;;;;;;;;9796681;28;20227;-77
2023/10/03 22:32:26;;;;;;;0.75;0.65;;;;;;;;;;9793735;28;20215;-76
2023/10/03 22:37:27;;;;;;;1.55;0.40;;;;;;;;;;9796164;28;20234;-77
2023/10/03 22:42:28;;;;;;;3.35;0.70;;;;;;;;;;9788546;28;22612;-75
2023/10/03 22:47:30;;;;;;;0.63;0.60;;;;;;;;;;9769920;28;20346;-76
2023/10/03 22:52:31;;;;;;;2.83;0.70;;;;;;;;;;9808528;28;20231;-77
2023/10/03 22:57:32;;;;;;;2.97;1.00;;;;;;;;;;9788039;28;20353;-77
2023/10/03 23:02:33;;;;;;;1.95;1.00;;;;;;;;;;9793910;28;21931;-76
2023/10/03 23:07:35;;;;;;;1.15;0.88;;;;;;;;;;9816344;28;21682;-76
2023/10/03 23:12:38;;;;;;;1.23;1.20;;;;;;;;;;9801225;28;22524;-77
2023/10/03 23:17:39;;;;;;;1.05;0.80;;;;;;;;;;9799969;28;20223;-77
2023/10/03 23:22:40;;;;;;;5.05;1.40;;;;;;;;;;9816405;28;20223;-77
2023/10/03 23:27:41;;;;;;;3.38;0.75;;;;;;;;;;9824104;28;22011;-76
2023/10/03 23:32:42;;;;;;;1.25;1.02;;;;;;;;;;9797573;28;20230;-75
2023/10/03 23:37:43;;;;;;;1.60;1.10;;;;;;;;;;10119343;28;20276;-81
2023/10/03 23:42:46;;;;;;;1.60;1.50;;;;;;;;;;10396767;28;20802;-81
2023/10/03 23:47:47;;;;;;;5.05;0.90;;;;;;;;;;10383920;28;20235;-81
2023/10/03 23:52:50;;;;;;;1.45;1.10;;;;;;;;;;10397535;28;20969;-81
2023/10/03 23:57:52;;;;;;;1.67;1.58;;;;;;;;;;10388203;28;20227;-81
